sensor_id;sensor_type;location;lat;lon;timestamp;pressure;altitude;pressure_sealevel;temperature;humidity
17209;BME280;8720;48.488;9.202;2023-02-15T00:02:03;98307.22;;;5.73;57.50
17209;BME280;8720;48.488;9.202;2023-02-15T00:04:30;98304.59;;;5.72;57.46
17209;BME280;8720;48.488;9.202;2023-02-15T00:07:25;98299.38;;;5.69;57.61
17209;BME280;8720;48.488;9.202;2023-02-15T00:09:52;98297.59;;;5.66;57.55
17209;BME280;8720;48.488;9.202;2023-02-15T00:12:20;98298.44;;;5.65;57.39
17209;BME280;8720;48.488;9.202;2023-02-15T00:14:50;98295.78;;;5.61;57.41
17209;BME280;8720;48.488;9.202;2023-02-15T00:17:17;98290.53;;;5.57;57.46
17209;BME280;8720;48.488;9.202;2023-02-15T00:19:45;98290.47;;;5.53;57.34
17209;BME280;8720;48.488;9.202;2023-02-15T00:22:12;98285.22;;;5.51;57.37
17209;BME280;8720;48.488;9.202;2023-02-15T00:24:41;98286.91;;;5.48;57.47
17209;BME280;8720;48.488;9.202;2023-02-15T00:27:08;98285.16;;;5.45;57.39
17209;BME280;8720;48.488;9.202;2023-02-15T00:29:36;98280.78;;;5.43;57.45
17209;BME280;8720;48.488;9.202;2023-02-15T00:32:04;98279.88;;;5.39;57.29
17209;BME280;8720;48.488;9.202;2023-02-15T00:34:32;98277.25;;;5.38;57.43
17209;BME280;8720;48.488;9.202;2023-02-15T00:36:59;98278.06;;;5.34;57.42
17209;BME280;8720;48.488;9.202;2023-02-15T00:39:26;98282.38;;;5.35;57.66
17209;BME280;8720;48.488;9.202;2023-02-15T00:41:56;98274.56;;;5.33;57.63
17209;BME280;8720;48.488;9.202;2023-02-15T00:44:23;98280.59;;;5.32;57.55
17209;BME280;8720;48.488;9.202;2023-02-15T00:46:50;98268.41;;;5.28;57.59
17209;BME280;8720;48.488;9.202;2023-02-15T00:49:20;98268.41;;;5.28;57.55
17209;BME280;8720;48.488;9.202;2023-02-15T00:51:47;98268.41;;;5.27;57.50
17209;BME280;8720;48.488;9.202;2023-02-15T00:54:14;98265.78;;;5.25;57.73
17209;BME280;8720;48.488;9.202;2023-02-15T00:56:42;98259.69;;;5.22;57.71
17209;BME280;8720;48.488;9.202;2023-02-15T00:59:10;98272.63;;;5.20;57.62
17209;BME280;8720;48.488;9.202;2023-02-15T01:01:38;98266.47;;;5.15;57.83
17209;BME280;8720;48.488;9.202;2023-02-15T01:04:05;98265.63;;;5.16;57.63
17209;BME280;8720;48.488;9.202;2023-02-15T01:06:32;98265.63;;;5.15;57.81
17209;BME280;8720;48.488;9.202;2023-02-15T01:09:00;98265.56;;;5.13;57.65
17209;BME280;8720;48.488;9.202;2023-02-15T01:11:27;98264.66;;;5.11;57.53
17209;BME280;8720;48.488;9.202;2023-02-15T01:13:57;98264.63;;;5.07;57.79
17209;BME280;8720;48.488;9.202;2023-02-15T01:16:29;98269.72;;;5.02;57.82
17209;BME280;8720;48.488;9.202;2023-02-15T01:18:56;98261.00;;;4.99;57.84
17209;BME280;8720;48.488;9.202;2023-02-15T01:21:25;98261.81;;;4.96;57.77
17209;BME280;8720;48.488;9.202;2023-02-15T01:23:53;98262.69;;;4.95;57.75
17209;BME280;8720;48.488;9.202;2023-02-15T01:26:20;98262.69;;;4.95;57.88
17209;BME280;8720;48.488;9.202;2023-02-15T01:28:47;98266.97;;;4.93;57.69
17209;BME280;8720;48.488;9.202;2023-02-15T01:31:19;98266.06;;;4.91;57.55
17209;BME280;8720;48.488;9.202;2023-02-15T01:33:49;98267.78;;;4.91;57.84
17209;BME280;8720;48.488;9.202;2023-02-15T01:36:16;98263.41;;;4.88;57.76
17209;BME280;8720;48.488;9.202;2023-02-15T01:38:44;98265.97;;;4.87;57.72
17209;BME280;8720;48.488;9.202;2023-02-15T01:41:11;98254.59;;;4.80;57.60
17209;BME280;8720;48.488;9.202;2023-02-15T01:43:51;98257.19;;;4.80;57.54
17209;BME280;8720;48.488;9.202;2023-02-15T01:46:23;98261.50;;;4.78;57.49
17209;BME280;8720;48.488;9.202;2023-02-15T01:49:00;98268.31;;;4.75;57.72
17209;BME280;8720;48.488;9.202;2023-02-15T01:51:34;98254.31;;;4.65;57.80
17209;BME280;8720;48.488;9.202;2023-02-15T01:54:08;98263.06;;;4.70;57.54
17209;BME280;8720;48.488;9.202;2023-02-15T01:56:39;98263.03;;;4.69;57.73
17209;BME280;8720;48.488;9.202;2023-02-15T01:59:13;98261.25;;;4.65;57.67
17209;BME280;8720;48.488;9.202;2023-02-15T02:01:43;98259.44;;;4.60;57.87
17209;BME280;8720;48.488;9.202;2023-02-15T02:04:21;98254.16;;;4.56;58.14
17209;BME280;8720;48.488;9.202;2023-02-15T02:06:52;98254.13;;;4.53;58.07
17209;BME280;8720;48.488;9.202;2023-02-15T02:09:20;98249.75;;;4.50;57.99
17209;BME280;8720;48.488;9.202;2023-02-15T02:11:48;98245.38;;;4.48;58.32
17209;BME280;8720;48.488;9.202;2023-02-15T02:14:16;98241.88;;;4.46;58.57
17209;BME280;8720;48.488;9.202;2023-02-15T02:16:52;98234.97;;;4.45;58.43
17209;BME280;8720;48.488;9.202;2023-02-15T02:23:28;98227.19;;;4.46;58.28
17209;BME280;8720;48.488;9.202;2023-02-15T02:33:43;98232.25;;;4.40;58.53
17209;BME280;8720;48.488;9.202;2023-02-15T02:36:21;98232.25;;;4.39;58.47
17209;BME280;8720;48.488;9.202;2023-02-15T02:39:12;98231.31;;;4.35;58.53
17209;BME280;8720;48.488;9.202;2023-02-15T02:41:56;98237.31;;;4.33;58.49
17209;BME280;8720;48.488;9.202;2023-02-15T02:44:30;98231.22;;;4.32;58.26
17209;BME280;8720;48.488;9.202;2023-02-15T02:47:08;98236.44;;;4.34;58.33
17209;BME280;8720;48.488;9.202;2023-02-15T02:49:41;98228.72;;;4.35;58.36
17209;BME280;8720;48.488;9.202;2023-02-15T02:52:40;98233.91;;;4.35;58.42
17209;BME280;8720;48.488;9.202;2023-02-15T02:55:15;98229.56;;;4.36;58.45
17209;BME280;8720;48.488;9.202;2023-02-15T02:57:53;98230.47;;;4.36;58.41
17209;BME280;8720;48.488;9.202;2023-02-15T03:03:17;98231.22;;;4.31;58.31
17209;BME280;8720;48.488;9.202;2023-02-15T03:05:54;98236.28;;;4.26;58.31
17209;BME280;8720;48.488;9.202;2023-02-15T03:08:26;98224.13;;;4.22;58.06
17209;BME280;8720;48.488;9.202;2023-02-15T03:11:00;98226.72;;;4.22;58.12
17209;BME280;8720;48.488;9.202;2023-02-15T03:13:29;98233.63;;;4.22;58.08
17209;BME280;8720;48.488;9.202;2023-02-15T03:15:58;98228.44;;;4.20;58.28
17209;BME280;8720;48.488;9.202;2023-02-15T03:18:48;98226.63;;;4.16;58.38
17209;BME280;8720;48.488;9.202;2023-02-15T03:21:33;98223.13;;;4.14;58.40
17209;BME280;8720;48.488;9.202;2023-02-15T03:24:10;98222.25;;;4.15;58.33
17209;BME280;8720;48.488;9.202;2023-02-15T03:26:40;98227.44;;;4.15;58.28
17209;BME280;8720;48.488;9.202;2023-02-15T03:29:11;98225.75;;;4.16;58.40
17209;BME280;8720;48.488;9.202;2023-02-15T03:31:45;98220.53;;;4.14;58.31
17209;BME280;8720;48.488;9.202;2023-02-15T03:34:15;98211.88;;;4.14;58.22
17209;BME280;8720;48.488;9.202;2023-02-15T03:36:50;98207.53;;;4.13;58.46
17209;BME280;8720;48.488;9.202;2023-02-15T03:39:25;98209.22;;;4.11;58.50
17209;BME280;8720;48.488;9.202;2023-02-15T03:42:03;98210.06;;;4.10;58.65
17209;BME280;8720;48.488;9.202;2023-02-15T03:44:45;98204.91;;;4.10;58.42
17209;BME280;8720;48.488;9.202;2023-02-15T03:47:19;98203.19;;;4.10;58.41
17209;BME280;8720;48.488;9.202;2023-02-15T03:49:53;98197.13;;;4.10;58.23
17209;BME280;8720;48.488;9.202;2023-02-15T03:52:28;98197.13;;;4.10;58.49
17209;BME280;8720;48.488;9.202;2023-02-15T03:54:55;98205.78;;;4.10;58.36
17209;BME280;8720;48.488;9.202;2023-02-15T03:57:26;98205.78;;;4.10;58.32
17209;BME280;8720;48.488;9.202;2023-02-15T04:00:15;98203.97;;;4.06;58.39
17209;BME280;8720;48.488;9.202;2023-02-15T04:03:21;98207.34;;;4.02;58.29
17209;BME280;8720;48.488;9.202;2023-02-15T04:05:50;98211.56;;;3.99;58.44
17209;BME280;8720;48.488;9.202;2023-02-15T04:08:18;98213.31;;;4.00;58.47
17209;BME280;8720;48.488;9.202;2023-02-15T04:10:46;98218.50;;;4.00;58.32
17209;BME280;8720;48.488;9.202;2023-02-15T04:13:18;98212.44;;;3.99;58.24
17209;BME280;8720;48.488;9.202;2023-02-15T04:15:45;98195.81;;;3.88;58.31
17209;BME280;8720;48.488;9.202;2023-02-15T04:18:31;98207.19;;;3.95;58.37
17209;BME280;8720;48.488;9.202;2023-02-15T04:21:17;98212.25;;;3.90;58.40
17209;BME280;8720;48.488;9.202;2023-02-15T04:24:04;98216.50;;;3.87;58.42
17209;BME280;8720;48.488;9.202;2023-02-15T04:26:49;98218.16;;;3.83;58.52
17209;BME280;8720;48.488;9.202;2023-02-15T04:29:19;98215.53;;;3.82;58.60
17209;BME280;8720;48.488;9.202;2023-02-15T04:31:47;98214.66;;;3.81;58.51
17209;BME280;8720;48.488;9.202;2023-02-15T04:34:14;98205.97;;;3.79;58.25
17209;BME280;8720;48.488;9.202;2023-02-15T04:36:43;98206.69;;;3.72;58.37
17209;BME280;8720;48.488;9.202;2023-02-15T04:39:13;98210.19;;;3.74;58.19
17209;BME280;8720;48.488;9.202;2023-02-15T04:41:41;98217.06;;;3.74;58.54
17209;BME280;8720;48.488;9.202;2023-02-15T04:44:09;98211.88;;;3.72;58.16
17209;BME280;8720;48.488;9.202;2023-02-15T04:46:37;98211.00;;;3.72;58.34
17209;BME280;8720;48.488;9.202;2023-02-15T04:49:04;98209.28;;;3.72;58.14
17209;BME280;8720;48.488;9.202;2023-02-15T04:51:31;98206.66;;;3.70;58.33
17209;BME280;8720;48.488;9.202;2023-02-15T04:53:59;98208.38;;;3.70;58.46
17209;BME280;8720;48.488;9.202;2023-02-15T04:56:27;98205.78;;;3.70;58.19
17209;BME280;8720;48.488;9.202;2023-02-15T04:58:55;98200.56;;;3.68;58.25
17209;BME280;8720;48.488;9.202;2023-02-15T05:01:23;98192.78;;;3.67;58.13
17209;BME280;8720;48.488;9.202;2023-02-15T05:03:50;98187.56;;;3.65;58.16
17209;BME280;8720;48.488;9.202;2023-02-15T05:06:17;98178.03;;;3.64;58.09
17209;BME280;8720;48.488;9.202;2023-02-15T05:08:45;98182.34;;;3.62;58.21
17209;BME280;8720;48.488;9.202;2023-02-15T05:11:12;98182.28;;;3.61;58.22
17209;BME280;8720;48.488;9.202;2023-02-15T05:13:41;98184.03;;;3.60;58.21
17209;BME280;8720;48.488;9.202;2023-02-15T05:16:08;98185.72;;;3.58;58.25
17209;BME280;8720;48.488;9.202;2023-02-15T05:18:35;98188.28;;;3.58;58.31
17209;BME280;8720;48.488;9.202;2023-02-15T05:21:03;98183.81;;;3.53;58.43
17209;BME280;8720;48.488;9.202;2023-02-15T05:23:30;98191.69;;;3.56;58.27
17209;BME280;8720;48.488;9.202;2023-02-15T05:25:58;98193.34;;;3.54;58.27
17209;BME280;8720;48.488;9.202;2023-02-15T05:28:43;98195.06;;;3.53;58.33
17209;BME280;8720;48.488;9.202;2023-02-15T05:31:13;98195.06;;;3.53;58.42
17209;BME280;8720;48.488;9.202;2023-02-15T05:33:41;98186.38;;;3.51;58.30
17209;BME280;8720;48.488;9.202;2023-02-15T05:36:09;98198.41;;;3.49;58.31
17209;BME280;8720;48.488;9.202;2023-02-15T05:38:37;98189.75;;;3.47;58.47
17209;BME280;8720;48.488;9.202;2023-02-15T05:41:04;98193.97;;;3.44;58.28
17209;BME280;8720;48.488;9.202;2023-02-15T05:43:32;98201.75;;;3.44;58.31
17209;BME280;8720;48.488;9.202;2023-02-15T05:46:02;98190.50;;;3.43;58.14
17209;BME280;8720;48.488;9.202;2023-02-15T05:48:30;98196.53;;;3.42;58.15
17209;BME280;8720;48.488;9.202;2023-02-15T05:50:59;98177.09;;;3.22;58.15
17209;BME280;8720;48.488;9.202;2023-02-15T05:53:28;98204.22;;;3.39;58.23
17209;BME280;8720;48.488;9.202;2023-02-15T05:55:55;98199.88;;;3.37;58.31
17209;BME280;8720;48.488;9.202;2023-02-15T05:58:25;98205.84;;;3.36;58.14
17209;BME280;8720;48.488;9.202;2023-02-15T06:00:53;98208.38;;;3.31;58.26
17209;BME280;8720;48.488;9.202;2023-02-15T06:03:23;98199.75;;;3.32;58.46
17209;BME280;8720;48.488;9.202;2023-02-15T06:05:52;98203.19;;;3.31;58.39
17209;BME280;8720;48.488;9.202;2023-02-15T06:08:19;98205.78;;;3.31;58.44
17209;BME280;8720;48.488;9.202;2023-02-15T06:10:47;98210.94;;;3.31;58.22
17209;BME280;8720;48.488;9.202;2023-02-15T06:13:14;98197.13;;;3.31;58.58
17209;BME280;8720;48.488;9.202;2023-02-15T06:15:41;98202.34;;;3.32;58.89
17209;BME280;8720;48.488;9.202;2023-02-15T06:18:09;98205.81;;;3.33;58.49
17209;BME280;8720;48.488;9.202;2023-02-15T06:20:37;98200.66;;;3.34;58.44
17209;BME280;8720;48.488;9.202;2023-02-15T06:23:05;98200.69;;;3.36;58.54
17209;BME280;8720;48.488;9.202;2023-02-15T06:25:32;98209.31;;;3.36;58.42
17209;BME280;8720;48.488;9.202;2023-02-15T06:27:59;98205.91;;;3.37;58.54
17209;BME280;8720;48.488;9.202;2023-02-15T06:30:26;98213.72;;;3.39;58.51
17209;BME280;8720;48.488;9.202;2023-02-15T06:32:54;98215.44;;;3.40;58.24
17209;BME280;8720;48.488;9.202;2023-02-15T06:35:21;98217.13;;;3.38;58.50
17209;BME280;8720;48.488;9.202;2023-02-15T06:37:50;98232.72;;;3.41;58.52
17209;BME280;8720;48.488;9.202;2023-02-15T06:40:17;98230.97;;;3.41;58.28
17209;BME280;8720;48.488;9.202;2023-02-15T06:42:45;98209.28;;;3.33;58.48
17209;BME280;8720;48.488;9.202;2023-02-15T06:45:12;98224.53;;;3.60;58.23
17209;BME280;8720;48.488;9.202;2023-02-15T06:47:40;98233.25;;;3.65;58.10
17209;BME280;8720;48.488;9.202;2023-02-15T06:50:09;98233.22;;;3.62;58.37
17209;BME280;8720;48.488;9.202;2023-02-15T06:52:36;98224.56;;;3.61;58.46
17209;BME280;8720;48.488;9.202;2023-02-15T06:55:06;98231.50;;;3.62;58.36
17209;BME280;8720;48.488;9.202;2023-02-15T06:57:34;98227.19;;;3.63;58.36
17209;BME280;8720;48.488;9.202;2023-02-15T07:00:02;98237.66;;;3.69;58.50
17209;BME280;8720;48.488;9.202;2023-02-15T07:02:30;98242.03;;;3.72;58.29
17209;BME280;8720;48.488;9.202;2023-02-15T07:04:58;98237.78;;;3.74;58.30
17209;BME280;8720;48.488;9.202;2023-02-15T07:07:25;98238.59;;;3.72;58.25
17209;BME280;8720;48.488;9.202;2023-02-15T07:09:53;98242.19;;;4.18;57.46
17209;BME280;8720;48.488;9.202;2023-02-15T07:12:21;98234.41;;;4.18;57.41
17209;BME280;8720;48.488;9.202;2023-02-15T07:15:07;98233.41;;;4.11;57.88
17209;BME280;8720;48.488;9.202;2023-02-15T07:17:35;98234.25;;;4.10;57.97
17209;BME280;8720;48.488;9.202;2023-02-15T07:20:05;98230.84;;;4.13;57.93
17209;BME280;8720;48.488;9.202;2023-02-15T07:22:33;98231.69;;;4.12;58.04
17209;BME280;8720;48.488;9.202;2023-02-15T07:25:02;98237.00;;;4.18;58.20
17209;BME280;8720;48.488;9.202;2023-02-15T07:27:32;98240.53;;;4.23;58.26
17209;BME280;8720;48.488;9.202;2023-02-15T07:29:59;98242.44;;;4.30;58.32
17209;BME280;8720;48.488;9.202;2023-02-15T07:32:29;98239.13;;;4.38;58.50
17209;BME280;8720;48.488;9.202;2023-02-15T07:34:58;98238.56;;;4.53;58.95
17209;BME280;8720;48.488;9.202;2023-02-15T07:37:26;98226.69;;;4.66;59.48
17209;BME280;8720;48.488;9.202;2023-02-15T07:39:54;98235.81;;;4.92;59.96
17209;BME280;8720;48.488;9.202;2023-02-15T07:42:21;98233.59;;;5.13;60.01
17209;BME280;8720;48.488;9.202;2023-02-15T07:44:50;98231.28;;;5.31;59.64
17209;BME280;8720;48.488;9.202;2023-02-15T07:47:18;98228.09;;;5.48;59.78
17209;BME280;8720;48.488;9.202;2023-02-15T07:49:45;98224.84;;;5.63;59.63
17209;BME280;8720;48.488;9.202;2023-02-15T07:52:15;98219.03;;;5.79;59.36
17209;BME280;8720;48.488;9.202;2023-02-15T07:54:42;98211.44;;;5.91;59.40
17209;BME280;8720;48.488;9.202;2023-02-15T07:57:09;98220.25;;;6.04;59.16
17209;BME280;8720;48.488;9.202;2023-02-15T07:59:37;98212.59;;;6.13;59.19
17209;BME280;8720;48.488;9.202;2023-02-15T08:02:09;98215.38;;;6.26;59.26
17209;BME280;8720;48.488;9.202;2023-02-15T08:04:37;98215.47;;;6.37;59.42
17209;BME280;8720;48.488;9.202;2023-02-15T08:07:05;98215.63;;;6.48;59.41
17209;BME280;8720;48.488;9.202;2023-02-15T08:09:32;98206.19;;;6.59;59.41
17209;BME280;8720;48.488;9.202;2023-02-15T08:12:00;98215.88;;;6.73;59.07
17209;BME280;8720;48.488;9.202;2023-02-15T08:14:28;98206.47;;;6.84;59.04
17209;BME280;8720;48.488;9.202;2023-02-15T08:16:59;98213.53;;;6.97;59.01
17209;BME280;8720;48.488;9.202;2023-02-15T08:19:31;98211.88;;;7.07;58.67
17209;BME280;8720;48.488;9.202;2023-02-15T08:22:03;98210.16;;;7.10;58.43
17209;BME280;8720;48.488;9.202;2023-02-15T08:24:33;98216.25;;;7.14;58.43
17209;BME280;8720;48.488;9.202;2023-02-15T08:27:02;98215.44;;;7.18;58.20
17209;BME280;8720;48.488;9.202;2023-02-15T08:29:31;98214.59;;;7.20;58.17
17209;BME280;8720;48.488;9.202;2023-02-15T08:32:02;98212.00;;;7.23;58.10
17209;BME280;8720;48.488;9.202;2023-02-15T08:34:35;98199.81;;;7.18;57.88
17209;BME280;8720;48.488;9.202;2023-02-15T08:37:03;98201.56;;;7.19;58.14
17209;BME280;8720;48.488;9.202;2023-02-15T08:39:31;98212.88;;;7.27;57.77
17209;BME280;8720;48.488;9.202;2023-02-15T08:41:59;98210.31;;;7.28;57.79
17209;BME280;8720;48.488;9.202;2023-02-15T08:44:26;98206.91;;;7.34;57.91
17209;BME280;8720;48.488;9.202;2023-02-15T08:46:57;98199.97;;;7.39;57.59
17209;BME280;8720;48.488;9.202;2023-02-15T08:49:31;98205.22;;;7.45;57.91
17209;BME280;8720;48.488;9.202;2023-02-15T08:51:58;98204.41;;;7.51;57.58
17209;BME280;8720;48.488;9.202;2023-02-15T08:54:25;98206.16;;;7.55;57.58
17209;BME280;8720;48.488;9.202;2023-02-15T08:56:53;98201.00;;;7.58;57.56
17209;BME280;8720;48.488;9.202;2023-02-15T08:59:22;98202.72;;;7.62;57.53
17209;BME280;8720;48.488;9.202;2023-02-15T09:01:51;98198.44;;;7.65;57.49
17209;BME280;8720;48.488;9.202;2023-02-15T09:04:20;98193.22;;;7.67;57.49
17209;BME280;8720;48.488;9.202;2023-02-15T09:06:50;98196.72;;;7.72;57.37
17209;BME280;8720;48.488;9.202;2023-02-15T09:09:19;98198.47;;;7.74;57.53
17209;BME280;8720;48.488;9.202;2023-02-15T09:11:49;98197.66;;;7.81;57.41
17209;BME280;8720;48.488;9.202;2023-02-15T09:14:19;98191.63;;;7.88;57.59
17209;BME280;8720;48.488;9.202;2023-02-15T09:16:48;98192.50;;;7.96;57.58
17209;BME280;8720;48.488;9.202;2023-02-15T09:19:19;98172.53;;;7.97;57.68
17209;BME280;8720;48.488;9.202;2023-02-15T09:21:47;98179.56;;;8.11;57.43
17209;BME280;8720;48.488;9.202;2023-02-15T09:24:16;98185.66;;;8.18;57.64
17209;BME280;8720;48.488;9.202;2023-02-15T09:26:46;98183.16;;;8.27;57.31
17209;BME280;8720;48.488;9.202;2023-02-15T09:29:15;98180.56;;;8.35;57.25
17209;BME280;8720;48.488;9.202;2023-02-15T09:31:45;98182.31;;;8.43;57.02
17209;BME280;8720;48.488;9.202;2023-02-15T09:34:15;98181.47;;;8.50;56.99
17209;BME280;8720;48.488;9.202;2023-02-15T09:36:44;98184.97;;;8.57;56.90
17209;BME280;8720;48.488;9.202;2023-02-15T09:39:16;98181.50;;;8.62;56.74
17209;BME280;8720;48.488;9.202;2023-02-15T09:42:27;98184.13;;;8.67;57.00
17209;BME280;8720;48.488;9.202;2023-02-15T09:45:26;98170.19;;;8.66;57.03
17209;BME280;8720;48.488;9.202;2023-02-15T09:48:26;98183.28;;;8.80;57.13
17209;BME280;8720;48.488;9.202;2023-02-15T09:51:16;98185.03;;;8.88;57.01
17209;BME280;8720;48.488;9.202;2023-02-15T09:54:13;98183.28;;;9.01;56.96
17209;BME280;8720;48.488;9.202;2023-02-15T09:56:52;98177.22;;;9.11;56.83
17209;BME280;8720;48.488;9.202;2023-02-15T09:59:28;98174.59;;;9.23;56.55
17209;BME280;8720;48.488;9.202;2023-02-15T10:02:20;98161.56;;;9.31;56.47
17209;BME280;8720;48.488;9.202;2023-02-15T10:05:07;98166.75;;;9.50;56.41
17209;BME280;8720;48.488;9.202;2023-02-15T10:08:21;98166.72;;;9.64;56.62
17209;BME280;8720;48.488;9.202;2023-02-15T10:11:03;98163.22;;;9.77;56.34
17209;BME280;8720;48.488;9.202;2023-02-15T10:14:03;98162.31;;;9.88;56.11
17209;BME280;8720;48.488;9.202;2023-02-15T10:16:45;98157.91;;;10.01;56.03
17209;BME280;8720;48.488;9.202;2023-02-15T10:19:29;98153.53;;;10.11;55.76
17209;BME280;8720;48.488;9.202;2023-02-15T10:22:16;98150.03;;;10.19;55.83
17209;BME280;8720;48.488;9.202;2023-02-15T10:25:13;98149.09;;;10.29;55.88
17209;BME280;8720;48.488;9.202;2023-02-15T10:27:50;98141.19;;;10.40;55.69
17209;BME280;8720;48.488;9.202;2023-02-15T10:30:31;98146.38;;;10.52;55.79
17209;BME280;8720;48.488;9.202;2023-02-15T10:33:04;98139.31;;;10.63;55.40
17209;BME280;8720;48.488;9.202;2023-02-15T10:35:48;98132.25;;;10.72;55.28
17209;BME280;8720;48.488;9.202;2023-02-15T10:38:28;98129.59;;;10.83;55.23
17209;BME280;8720;48.488;9.202;2023-02-15T10:41:13;98133.84;;;10.96;55.06
17209;BME280;8720;48.488;9.202;2023-02-15T10:44:00;98129.38;;;11.07;55.07
17209;BME280;8720;48.488;9.202;2023-02-15T10:46:54;98122.31;;;11.20;54.92
17209;BME280;8720;48.488;9.202;2023-02-15T10:49:51;98121.34;;;11.31;55.12
17209;BME280;8720;48.488;9.202;2023-02-15T10:52:37;98124.69;;;11.44;54.95
17209;BME280;8720;48.488;9.202;2023-02-15T10:55:18;98117.59;;;11.56;54.67
17209;BME280;8720;48.488;9.202;2023-02-15T10:57:56;98100.03;;;11.64;54.48
17209;BME280;8720;48.488;9.202;2023-02-15T11:00:31;98107.75;;;11.79;54.28
17209;BME280;8720;48.488;9.202;2023-02-15T11:03:41;98096.22;;;11.93;54.59
17209;BME280;8720;48.488;9.202;2023-02-15T11:06:16;98104.84;;;12.05;54.25
17209;BME280;8720;48.488;9.202;2023-02-15T11:08:49;98095.91;;;12.18;53.98
17209;BME280;8720;48.488;9.202;2023-02-15T11:11:23;98102.72;;;12.31;53.57
17209;BME280;8720;48.488;9.202;2023-02-15T11:13:57;98100.81;;;12.42;53.61
17209;BME280;8720;48.488;9.202;2023-02-15T11:16:31;98087.53;;;12.54;53.47
17209;BME280;8720;48.488;9.202;2023-02-15T11:19:08;98089.06;;;12.67;53.29
17209;BME280;8720;48.488;9.202;2023-02-15T11:21:42;98083.56;;;12.82;53.27
17209;BME280;8720;48.488;9.202;2023-02-15T11:24:13;98083.34;;;12.96;53.04
17209;BME280;8720;48.488;9.202;2023-02-15T11:26:47;98083.19;;;13.08;52.65
17209;BME280;8720;48.488;9.202;2023-02-15T11:29:24;98075.13;;;13.19;52.72
17209;BME280;8720;48.488;9.202;2023-02-15T11:31:58;98075.75;;;13.33;52.34
17209;BME280;8720;48.488;9.202;2023-02-15T11:34:33;98074.69;;;13.43;52.34
17209;BME280;8720;48.488;9.202;2023-02-15T11:37:08;98068.34;;;13.54;52.07
17209;BME280;8720;48.488;9.202;2023-02-15T11:39:37;98071.63;;;13.67;51.97
17209;BME280;8720;48.488;9.202;2023-02-15T11:42:12;98070.50;;;13.79;51.68
17209;BME280;8720;48.488;9.202;2023-02-15T11:44:58;98064.13;;;13.89;51.55
17209;BME280;8720;48.488;9.202;2023-02-15T11:47:26;98065.66;;;14.02;51.41
17209;BME280;8720;48.488;9.202;2023-02-15T11:49:56;98060.97;;;14.14;51.11
17209;BME280;8720;48.488;9.202;2023-02-15T11:52:23;98052.81;;;14.26;51.00
17209;BME280;8720;48.488;9.202;2023-02-15T11:54:52;98037.78;;;14.33;50.79
17209;BME280;8720;48.488;9.202;2023-02-15T11:57:25;98048.78;;;14.51;50.86
17209;BME280;8720;48.488;9.202;2023-02-15T12:00:01;98043.19;;;14.64;50.44
17209;BME280;8720;48.488;9.202;2023-02-15T12:02:37;98041.25;;;14.73;50.22
17209;BME280;8720;48.488;9.202;2023-02-15T12:05:15;98043.53;;;14.85;50.06
17209;BME280;8720;48.488;9.202;2023-02-15T12:07:50;98036.22;;;14.98;49.64
17209;BME280;8720;48.488;9.202;2023-02-15T12:10:24;98036.75;;;15.10;49.65
17209;BME280;8720;48.488;9.202;2023-02-15T12:13:11;98033.88;;;15.21;49.77
17209;BME280;8720;48.488;9.202;2023-02-15T12:15:42;98042.31;;;15.33;49.21
17209;BME280;8720;48.488;9.202;2023-02-15T12:18:31;98022.88;;;15.37;49.40
17209;BME280;8720;48.488;9.202;2023-02-15T12:21:07;98026.91;;;15.52;48.98
17209;BME280;8720;48.488;9.202;2023-02-15T12:23:43;98026.66;;;15.61;49.01
17209;BME280;8720;48.488;9.202;2023-02-15T12:26:13;98025.50;;;15.70;48.63
17209;BME280;8720;48.488;9.202;2023-02-15T12:28:44;98025.25;;;15.79;48.44
17209;BME280;8720;48.488;9.202;2023-02-15T12:31:23;98018.78;;;15.90;48.39
17209;BME280;8720;48.488;9.202;2023-02-15T12:33:54;98017.53;;;16.02;48.11
17209;BME280;8720;48.488;9.202;2023-02-15T12:36:31;98011.97;;;16.11;47.80
17209;BME280;8720;48.488;9.202;2023-02-15T12:39:17;98014.31;;;16.21;48.21
17209;BME280;8720;48.488;9.202;2023-02-15T12:41:57;98009.56;;;16.32;47.97
17209;BME280;8720;48.488;9.202;2023-02-15T12:44:28;98007.44;;;16.44;47.55
17209;BME280;8720;48.488;9.202;2023-02-15T12:47:01;98004.53;;;16.53;47.12
17209;BME280;8720;48.488;9.202;2023-02-15T12:49:31;98010.25;;;16.67;46.77
17209;BME280;8720;48.488;9.202;2023-02-15T12:52:02;98001.19;;;16.75;46.79
17209;BME280;8720;48.488;9.202;2023-02-15T12:54:37;98008.78;;;16.84;46.73
17209;BME280;8720;48.488;9.202;2023-02-15T12:57:26;97999.78;;;16.90;47.20
17209;BME280;8720;48.488;9.202;2023-02-15T12:59:57;98004.88;;;16.96;46.15
17209;BME280;8720;48.488;9.202;2023-02-15T13:02:30;97992.34;;;17.02;46.15
17209;BME280;8720;48.488;9.202;2023-02-15T13:05:16;97996.41;;;17.11;46.35
17209;BME280;8720;48.488;9.202;2023-02-15T13:07:52;97996.13;;;17.20;46.28
17209;BME280;8720;48.488;9.202;2023-02-15T13:10:26;97991.41;;;17.28;45.52
17209;BME280;8720;48.488;9.202;2023-02-15T13:12:56;97981.50;;;17.35;45.22
17209;BME280;8720;48.488;9.202;2023-02-15T13:15:34;97978.63;;;17.41;45.10
17209;BME280;8720;48.488;9.202;2023-02-15T13:18:04;97983.69;;;17.48;44.89
17209;BME280;8720;48.488;9.202;2023-02-15T13:20:35;97969.28;;;17.55;44.44
17209;BME280;8720;48.488;9.202;2023-02-15T13:23:23;97969.94;;;17.62;44.92
17209;BME280;8720;48.488;9.202;2023-02-15T13:25:56;97974.16;;;17.67;44.22
17209;BME280;8720;48.488;9.202;2023-02-15T13:28:32;97966.09;;;17.70;43.96
17209;BME280;8720;48.488;9.202;2023-02-15T13:31:01;97965.84;;;17.78;43.67
17209;BME280;8720;48.488;9.202;2023-02-15T13:33:33;97968.28;;;17.82;43.08
17209;BME280;8720;48.488;9.202;2023-02-15T13:36:09;97967.31;;;17.85;43.07
17209;BME280;8720;48.488;9.202;2023-02-15T13:38:51;97958.50;;;17.84;43.04
17209;BME280;8720;48.488;9.202;2023-02-15T13:41:30;97961.84;;;17.89;42.76
17209;BME280;8720;48.488;9.202;2023-02-15T13:44:13;97959.94;;;17.93;42.46
17209;BME280;8720;48.488;9.202;2023-02-15T13:47:15;97960.69;;;17.96;43.61
17209;BME280;8720;48.488;9.202;2023-02-15T13:50:03;97955.31;;;17.98;43.15
17209;BME280;8720;48.488;9.202;2023-02-15T13:52:47;97950.78;;;18.01;43.11
17209;BME280;8720;48.488;9.202;2023-02-15T13:55:38;97956.88;;;18.03;43.59
17209;BME280;8720;48.488;9.202;2023-02-15T14:01:30;97942.97;;;17.98;42.90
17209;BME280;8720;48.488;9.202;2023-02-15T14:04:48;97942.84;;;18.01;44.42
17209;BME280;8720;48.488;9.202;2023-02-15T14:07:41;97944.50;;;18.04;43.65
17209;BME280;8720;48.488;9.202;2023-02-15T14:10:45;97938.34;;;18.03;44.23
17209;BME280;8720;48.488;9.202;2023-02-15T14:13:57;97932.16;;;18.03;44.18